sensor_id;sensor_type;location;lat;lon;timestamp;P1;durP1;ratioP1;P2;durP2;ratioP2
74293;SDS011;64044;59.904;10.738;2023-08-20T00:00:52;1.98;;;1.60;;
74293;SDS011;64044;59.904;10.738;2023-08-20T00:03:18;2.33;;;1.85;;
74293;SDS011;64044;59.904;10.738;2023-08-20T00:05:44;2.03;;;1.80;;
74293;SDS011;64044;59.904;10.738;2023-08-20T00:08:10;4.90;;;2.40;;
74293;SDS011;64044;59.904;10.738;2023-08-20T00:10:35;2.83;;;2.20;;
74293;SDS011;64044;59.904;10.738;2023-08-20T00:13:01;2.20;;;2.00;;
74293;SDS011;64044;59.904;10.738;2023-08-20T00:15:29;2.05;;;1.80;;
74293;SDS011;64044;59.904;10.738;2023-08-20T00:17:55;1.92;;;1.73;;
74293;SDS011;64044;59.904;10.738;2023-08-20T00:20:21;1.77;;;1.67;;
74293;SDS011;64044;59.904;10.738;2023-08-20T00:22:48;1.98;;;1.80;;
74293;SDS011;64044;59.904;10.738;2023-08-20T00:25:14;2.20;;;2.00;;
74293;SDS011;64044;59.904;10.738;2023-08-20T00:27:41;1.80;;;1.70;;
74293;SDS011;64044;59.904;10.738;2023-08-20T00:30:08;1.80;;;1.70;;
74293;SDS011;64044;59.904;10.738;2023-08-20T00:32:35;1.88;;;1.75;;
74293;SDS011;64044;59.904;10.738;2023-08-20T00:35:01;1.63;;;1.52;;
74293;SDS011;64044;59.904;10.738;2023-08-20T00:37:30;2.17;;;1.98;;
74293;SDS011;64044;59.904;10.738;2023-08-20T00:39:56;3.00;;;2.03;;
74293;SDS011;64044;59.904;10.738;2023-08-20T00:42:25;2.05;;;1.85;;
74293;SDS011;64044;59.904;10.738;2023-08-20T00:44:51;3.08;;;2.30;;
74293;SDS011;64044;59.904;10.738;2023-08-20T00:47:17;3.78;;;2.22;;
74293;SDS011;64044;59.904;10.738;2023-08-20T00:49:44;6.47;;;3.08;;
74293;SDS011;64044;59.904;10.738;2023-08-20T00:52:11;2.58;;;2.10;;
74293;SDS011;64044;59.904;10.738;2023-08-20T00:54:41;4.97;;;2.25;;
74293;SDS011;64044;59.904;10.738;2023-08-20T00:57:11;4.32;;;2.67;;
74293;SDS011;64044;59.904;10.738;2023-08-20T00:59:39;4.22;;;2.55;;
74293;SDS011;64044;59.904;10.738;2023-08-20T01:02:06;3.88;;;2.70;;
74293;SDS011;64044;59.904;10.738;2023-08-20T01:04:32;3.10;;;2.38;;
74293;SDS011;64044;59.904;10.738;2023-08-20T01:07:11;3.10;;;2.60;;
74293;SDS011;64044;59.904;10.738;2023-08-20T01:12:39;2.60;;;2.25;;
74293;SDS011;64044;59.904;10.738;2023-08-20T01:15:06;2.60;;;2.33;;
74293;SDS011;64044;59.904;10.738;2023-08-20T01:17:38;4.47;;;2.50;;
74293;SDS011;64044;59.904;10.738;2023-08-20T01:20:10;5.25;;;2.63;;
74293;SDS011;64044;59.904;10.738;2023-08-20T01:30:57;4.65;;;2.45;;
74293;SDS011;64044;59.904;10.738;2023-08-20T01:33:24;6.57;;;2.50;;
74293;SDS011;64044;59.904;10.738;2023-08-20T01:35:51;4.30;;;2.63;;
74293;SDS011;64044;59.904;10.738;2023-08-20T01:38:17;3.30;;;2.45;;
74293;SDS011;64044;59.904;10.738;2023-08-20T01:40:43;3.83;;;2.65;;
74293;SDS011;64044;59.904;10.738;2023-08-20T01:43:09;3.78;;;2.42;;
74293;SDS011;64044;59.904;10.738;2023-08-20T01:45:34;3.67;;;2.03;;
74293;SDS011;64044;59.904;10.738;2023-08-20T01:48:01;3.25;;;2.17;;
74293;SDS011;64044;59.904;10.738;2023-08-20T01:50:26;4.32;;;2.67;;
74293;SDS011;64044;59.904;10.738;2023-08-20T01:52:52;2.88;;;2.00;;
74293;SDS011;64044;59.904;10.738;2023-08-20T01:55:18;5.25;;;2.30;;
74293;SDS011;64044;59.904;10.738;2023-08-20T01:57:43;3.00;;;2.63;;
74293;SDS011;64044;59.904;10.738;2023-08-20T02:00:09;2.42;;;2.17;;
74293;SDS011;64044;59.904;10.738;2023-08-20T02:02:35;3.97;;;2.17;;
74293;SDS011;64044;59.904;10.738;2023-08-20T02:05:01;2.10;;;1.83;;
74293;SDS011;64044;59.904;10.738;2023-08-20T02:07:28;2.03;;;1.92;;
74293;SDS011;64044;59.904;10.738;2023-08-20T02:09:53;2.20;;;1.98;;
74293;SDS011;64044;59.904;10.738;2023-08-20T02:12:19;4.35;;;2.30;;
74293;SDS011;64044;59.904;10.738;2023-08-20T02:14:45;2.60;;;2.05;;
74293;SDS011;64044;59.904;10.738;2023-08-20T02:17:10;4.32;;;2.65;;
74293;SDS011;64044;59.904;10.738;2023-08-20T02:19:37;2.42;;;2.20;;
74293;SDS011;64044;59.904;10.738;2023-08-20T02:22:03;4.03;;;2.22;;
74293;SDS011;64044;59.904;10.738;2023-08-20T02:24:29;3.33;;;2.22;;
74293;SDS011;64044;59.904;10.738;2023-08-20T02:26:55;2.65;;;2.45;;
74293;SDS011;64044;59.904;10.738;2023-08-20T02:29:21;4.75;;;2.80;;
74293;SDS011;64044;59.904;10.738;2023-08-20T02:31:46;3.78;;;2.60;;
74293;SDS011;64044;59.904;10.738;2023-08-20T02:34:12;2.90;;;2.60;;
74293;SDS011;64044;59.904;10.738;2023-08-20T02:36:38;5.95;;;3.00;;
74293;SDS011;64044;59.904;10.738;2023-08-20T02:39:03;6.00;;;2.97;;
74293;SDS011;64044;59.904;10.738;2023-08-20T02:41:33;5.53;;;3.00;;
74293;SDS011;64044;59.904;10.738;2023-08-20T02:43:59;4.25;;;2.53;;
74293;SDS011;64044;59.904;10.738;2023-08-20T02:46:25;4.47;;;3.15;;
74293;SDS011;64044;59.904;10.738;2023-08-20T02:48:51;4.80;;;2.67;;
74293;SDS011;64044;59.904;10.738;2023-08-20T02:51:17;2.70;;;2.35;;
74293;SDS011;64044;59.904;10.738;2023-08-20T02:53:42;3.00;;;2.38;;
74293;SDS011;64044;59.904;10.738;2023-08-20T02:56:08;2.47;;;2.28;;
74293;SDS011;64044;59.904;10.738;2023-08-20T02:58:34;4.45;;;2.28;;
74293;SDS011;64044;59.904;10.738;2023-08-20T03:00:59;2.75;;;2.40;;
74293;SDS011;64044;59.904;10.738;2023-08-20T03:03:25;2.80;;;2.40;;
74293;SDS011;64044;59.904;10.738;2023-08-20T03:05:51;2.92;;;2.63;;
74293;SDS011;64044;59.904;10.738;2023-08-20T03:08:16;4.47;;;2.70;;
74293;SDS011;64044;59.904;10.738;2023-08-20T03:10:42;3.80;;;2.13;;
74293;SDS011;64044;59.904;10.738;2023-08-20T03:13:08;8.18;;;2.28;;
74293;SDS011;64044;59.904;10.738;2023-08-20T03:15:33;2.17;;;1.83;;
74293;SDS011;64044;59.904;10.738;2023-08-20T03:17:59;4.88;;;2.78;;
74293;SDS011;64044;59.904;10.738;2023-08-20T03:20:25;2.90;;;2.58;;
74293;SDS011;64044;59.904;10.738;2023-08-20T03:22:53;4.30;;;2.15;;
74293;SDS011;64044;59.904;10.738;2023-08-20T03:25:19;2.10;;;1.90;;
74293;SDS011;64044;59.904;10.738;2023-08-20T03:27:44;4.22;;;2.42;;
74293;SDS011;64044;59.904;10.738;2023-08-20T03:30:10;4.88;;;2.35;;
74293;SDS011;64044;59.904;10.738;2023-08-20T03:32:37;3.95;;;2.25;;
74293;SDS011;64044;59.904;10.738;2023-08-20T03:35:03;3.90;;;2.38;;
74293;SDS011;64044;59.904;10.738;2023-08-20T03:37:29;2.60;;;1.80;;
74293;SDS011;64044;59.904;10.738;2023-08-20T03:39:55;5.07;;;2.45;;
74293;SDS011;64044;59.904;10.738;2023-08-20T03:42:21;3.00;;;2.22;;
74293;SDS011;64044;59.904;10.738;2023-08-20T03:44:46;8.30;;;2.88;;
74293;SDS011;64044;59.904;10.738;2023-08-20T03:47:12;11.75;;;3.95;;
74293;SDS011;64044;59.904;10.738;2023-08-20T03:49:38;8.55;;;2.80;;
74293;SDS011;64044;59.904;10.738;2023-08-20T03:52:04;5.85;;;2.58;;
74293;SDS011;64044;59.904;10.738;2023-08-20T03:54:32;3.10;;;2.25;;
74293;SDS011;64044;59.904;10.738;2023-08-20T03:56:58;3.58;;;2.17;;
74293;SDS011;64044;59.904;10.738;2023-08-20T03:59:24;2.30;;;1.90;;
74293;SDS011;64044;59.904;10.738;2023-08-20T04:01:49;2.88;;;2.22;;
74293;SDS011;64044;59.904;10.738;2023-08-20T04:04:15;2.45;;;1.90;;
74293;SDS011;64044;59.904;10.738;2023-08-20T04:06:41;2.85;;;2.03;;
74293;SDS011;64044;59.904;10.738;2023-08-20T04:09:07;3.55;;;1.92;;
74293;SDS011;64044;59.904;10.738;2023-08-20T04:11:34;2.88;;;1.95;;
74293;SDS011;64044;59.904;10.738;2023-08-20T04:14:00;2.83;;;2.33;;
74293;SDS011;64044;59.904;10.738;2023-08-20T04:16:26;3.13;;;2.17;;
74293;SDS011;64044;59.904;10.738;2023-08-20T04:18:51;2.20;;;1.98;;
74293;SDS011;64044;59.904;10.738;2023-08-20T04:21:17;2.50;;;2.10;;
74293;SDS011;64044;59.904;10.738;2023-08-20T04:23:43;1.80;;;1.60;;
74293;SDS011;64044;59.904;10.738;2023-08-20T04:26:08;2.05;;;1.83;;
74293;SDS011;64044;59.904;10.738;2023-08-20T04:28:34;1.50;;;1.40;;
74293;SDS011;64044;59.904;10.738;2023-08-20T04:31:00;1.60;;;1.50;;
74293;SDS011;64044;59.904;10.738;2023-08-20T04:33:26;2.40;;;1.52;;
74293;SDS011;64044;59.904;10.738;2023-08-20T04:35:52;4.22;;;1.90;;
74293;SDS011;64044;59.904;10.738;2023-08-20T04:38:18;4.50;;;2.10;;
74293;SDS011;64044;59.904;10.738;2023-08-20T04:40:47;4.32;;;1.90;;
74293;SDS011;64044;59.904;10.738;2023-08-20T04:43:13;9.50;;;3.17;;
74293;SDS011;64044;59.904;10.738;2023-08-20T04:45:39;16.17;;;3.22;;
74293;SDS011;64044;59.904;10.738;2023-08-20T04:48:05;27.10;;;6.05;;
74293;SDS011;64044;59.904;10.738;2023-08-20T04:50:31;23.80;;;4.95;;
74293;SDS011;64044;59.904;10.738;2023-08-20T04:52:57;25.23;;;5.28;;
74293;SDS011;64044;59.904;10.738;2023-08-20T04:55:25;15.75;;;3.97;;
74293;SDS011;64044;59.904;10.738;2023-08-20T04:57:51;13.60;;;3.13;;
74293;SDS011;64044;59.904;10.738;2023-08-20T05:03:07;2.80;;;1.70;;
74293;SDS011;64044;59.904;10.738;2023-08-20T05:05:33;8.15;;;1.90;;
74293;SDS011;64044;59.904;10.738;2023-08-20T05:07:58;2.38;;;1.65;;
74293;SDS011;64044;59.904;10.738;2023-08-20T05:10:24;4.47;;;1.80;;
74293;SDS011;64044;59.904;10.738;2023-08-20T05:12:50;1.90;;;1.42;;
74293;SDS011;64044;59.904;10.738;2023-08-20T05:15:16;6.55;;;1.40;;
74293;SDS011;64044;59.904;10.738;2023-08-20T05:17:42;1.77;;;1.27;;
74293;SDS011;64044;59.904;10.738;2023-08-20T05:20:07;2.30;;;1.80;;
74293;SDS011;64044;59.904;10.738;2023-08-20T05:22:34;1.10;;;1.00;;
74293;SDS011;64044;59.904;10.738;2023-08-20T05:25:00;1.60;;;1.50;;
74293;SDS011;64044;59.904;10.738;2023-08-20T05:27:25;2.53;;;1.15;;
74293;SDS011;64044;59.904;10.738;2023-08-20T05:29:51;1.90;;;1.20;;
74293;SDS011;64044;59.904;10.738;2023-08-20T05:32:17;1.10;;;1.00;;
74293;SDS011;64044;59.904;10.738;2023-08-20T05:34:43;0.85;;;0.85;;
74293;SDS011;64044;59.904;10.738;2023-08-20T05:37:08;1.08;;;0.95;;
74293;SDS011;64044;59.904;10.738;2023-08-20T05:39:41;3.03;;;1.00;;
74293;SDS011;64044;59.904;10.738;2023-08-20T05:42:07;1.73;;;1.17;;
74293;SDS011;64044;59.904;10.738;2023-08-20T05:44:33;0.80;;;0.80;;
74293;SDS011;64044;59.904;10.738;2023-08-20T05:46:59;1.60;;;0.90;;
74293;SDS011;64044;59.904;10.738;2023-08-20T05:49:26;1.25;;;0.90;;
74293;SDS011;64044;59.904;10.738;2023-08-20T05:51:52;1.15;;;0.98;;
74293;SDS011;64044;59.904;10.738;2023-08-20T05:54:18;2.13;;;0.85;;
74293;SDS011;64044;59.904;10.738;2023-08-20T05:56:44;1.30;;;0.90;;
74293;SDS011;64044;59.904;10.738;2023-08-20T05:59:09;1.60;;;1.00;;
74293;SDS011;64044;59.904;10.738;2023-08-20T06:01:38;2.72;;;1.25;;
74293;SDS011;64044;59.904;10.738;2023-08-20T06:04:04;2.75;;;1.20;;
74293;SDS011;64044;59.904;10.738;2023-08-20T06:06:30;2.35;;;1.48;;
74293;SDS011;64044;59.904;10.738;2023-08-20T06:08:56;1.38;;;1.10;;
74293;SDS011;64044;59.904;10.738;2023-08-20T06:11:21;1.90;;;1.25;;
74293;SDS011;64044;59.904;10.738;2023-08-20T06:13:47;1.67;;;1.10;;
74293;SDS011;64044;59.904;10.738;2023-08-20T06:16:13;1.83;;;1.30;;
74293;SDS011;64044;59.904;10.738;2023-08-20T06:18:39;2.17;;;1.42;;
74293;SDS011;64044;59.904;10.738;2023-08-20T06:21:04;1.25;;;1.13;;
74293;SDS011;64044;59.904;10.738;2023-08-20T06:23:30;1.50;;;1.10;;
74293;SDS011;64044;59.904;10.738;2023-08-20T06:25:56;1.17;;;1.08;;
74293;SDS011;64044;59.904;10.738;2023-08-20T06:28:21;1.75;;;1.00;;
74293;SDS011;64044;59.904;10.738;2023-08-20T06:30:47;1.13;;;0.93;;
74293;SDS011;64044;59.904;10.738;2023-08-20T06:33:13;1.00;;;0.75;;
74293;SDS011;64044;59.904;10.738;2023-08-20T06:35:39;1.13;;;1.00;;
74293;SDS011;64044;59.904;10.738;2023-08-20T06:38:06;1.10;;;1.00;;
74293;SDS011;64044;59.904;10.738;2023-08-20T06:40:32;0.90;;;0.90;;
74293;SDS011;64044;59.904;10.738;2023-08-20T06:42:58;3.20;;;1.33;;
74293;SDS011;64044;59.904;10.738;2023-08-20T06:45:24;1.08;;;1.00;;
74293;SDS011;64044;59.904;10.738;2023-08-20T06:47:49;1.50;;;1.30;;
74293;SDS011;64044;59.904;10.738;2023-08-20T06:50:15;0.60;;;0.60;;
74293;SDS011;64044;59.904;10.738;2023-08-20T06:52:41;0.73;;;0.73;;
74293;SDS011;64044;59.904;10.738;2023-08-20T06:55:07;1.17;;;0.80;;
74293;SDS011;64044;59.904;10.738;2023-08-20T06:57:33;0.80;;;0.80;;
74293;SDS011;64044;59.904;10.738;2023-08-20T06:59:59;1.83;;;1.50;;
74293;SDS011;64044;59.904;10.738;2023-08-20T07:02:24;1.20;;;0.90;;
74293;SDS011;64044;59.904;10.738;2023-08-20T07:04:50;0.80;;;0.80;;
74293;SDS011;64044;59.904;10.738;2023-08-20T07:07:16;2.00;;;0.80;;
74293;SDS011;64044;59.904;10.738;2023-08-20T07:09:41;0.60;;;0.60;;
74293;SDS011;64044;59.904;10.738;2023-08-20T07:12:07;1.50;;;0.80;;
74293;SDS011;64044;59.904;10.738;2023-08-20T07:14:33;1.77;;;0.80;;
74293;SDS011;64044;59.904;10.738;2023-08-20T07:16:59;0.70;;;0.70;;
74293;SDS011;64044;59.904;10.738;2023-08-20T07:19:25;0.80;;;0.80;;
74293;SDS011;64044;59.904;10.738;2023-08-20T07:21:51;1.38;;;0.68;;
74293;SDS011;64044;59.904;10.738;2023-08-20T07:24:16;0.50;;;0.50;;
74293;SDS011;64044;59.904;10.738;2023-08-20T07:26:43;0.63;;;0.63;;
74293;SDS011;64044;59.904;10.738;2023-08-20T07:29:09;0.50;;;0.40;;
74293;SDS011;64044;59.904;10.738;2023-08-20T07:31:35;1.40;;;0.85;;
74293;SDS011;64044;59.904;10.738;2023-08-20T07:34:01;10.38;;;1.40;;
74293;SDS011;64044;59.904;10.738;2023-08-20T07:36:28;0.57;;;0.57;;
74293;SDS011;64044;59.904;10.738;2023-08-20T07:38:54;0.50;;;0.50;;
74293;SDS011;64044;59.904;10.738;2023-08-20T07:41:20;1.98;;;0.98;;
74293;SDS011;64044;59.904;10.738;2023-08-20T07:43:46;2.58;;;0.57;;
74293;SDS011;64044;59.904;10.738;2023-08-20T07:46:13;1.15;;;0.50;;
74293;SDS011;64044;59.904;10.738;2023-08-20T07:48:39;0.52;;;0.40;;
74293;SDS011;64044;59.904;10.738;2023-08-20T07:51:05;2.70;;;0.57;;
74293;SDS011;64044;59.904;10.738;2023-08-20T07:53:31;0.50;;;0.50;;
74293;SDS011;64044;59.904;10.738;2023-08-20T07:55:57;0.40;;;0.40;;
74293;SDS011;64044;59.904;10.738;2023-08-20T07:58:24;1.73;;;0.55;;
74293;SDS011;64044;59.904;10.738;2023-08-20T08:00:49;0.40;;;0.30;;
74293;SDS011;64044;59.904;10.738;2023-08-20T08:03:15;0.88;;;0.50;;
74293;SDS011;64044;59.904;10.738;2023-08-20T08:05:45;0.50;;;0.50;;
74293;SDS011;64044;59.904;10.738;2023-08-20T08:08:12;0.40;;;0.40;;
74293;SDS011;64044;59.904;10.738;2023-08-20T08:10:38;0.40;;;0.40;;
74293;SDS011;64044;59.904;10.738;2023-08-20T08:13:03;1.02;;;0.50;;
74293;SDS011;64044;59.904;10.738;2023-08-20T08:15:29;3.45;;;1.35;;
74293;SDS011;64044;59.904;10.738;2023-08-20T08:17:55;0.60;;;0.60;;
74293;SDS011;64044;59.904;10.738;2023-08-20T08:20:20;1.70;;;0.82;;
74293;SDS011;64044;59.904;10.738;2023-08-20T08:22:47;1.25;;;0.70;;
74293;SDS011;64044;59.904;10.738;2023-08-20T08:25:13;1.38;;;0.65;;
74293;SDS011;64044;59.904;10.738;2023-08-20T08:27:38;0.90;;;0.70;;
74293;SDS011;64044;59.904;10.738;2023-08-20T08:30:04;0.68;;;0.50;;
74293;SDS011;64044;59.904;10.738;2023-08-20T08:32:31;0.50;;;0.50;;
74293;SDS011;64044;59.904;10.738;2023-08-20T08:34:56;1.35;;;0.70;;
74293;SDS011;64044;59.904;10.738;2023-08-20T08:37:22;0.93;;;0.88;;
74293;SDS011;64044;59.904;10.738;2023-08-20T08:39:47;0.98;;;0.80;;
74293;SDS011;64044;59.904;10.738;2023-08-20T08:42:13;0.93;;;0.82;;
74293;SDS011;64044;59.904;10.738;2023-08-20T08:44:40;1.40;;;1.00;;
74293;SDS011;64044;59.904;10.738;2023-08-20T08:47:06;1.20;;;0.60;;
74293;SDS011;64044;59.904;10.738;2023-08-20T08:49:35;3.90;;;0.93;;
74293;SDS011;64044;59.904;10.738;2023-08-20T08:52:01;0.90;;;0.90;;
74293;SDS011;64044;59.904;10.738;2023-08-20T08:54:29;1.02;;;0.80;;
74293;SDS011;64044;59.904;10.738;2023-08-20T08:56:57;0.85;;;0.80;;
74293;SDS011;64044;59.904;10.738;2023-08-20T08:59:23;1.98;;;1.20;;
74293;SDS011;64044;59.904;10.738;2023-08-20T09:01:48;1.50;;;0.80;;
74293;SDS011;64044;59.904;10.738;2023-08-20T09:04:14;1.73;;;1.17;;
74293;SDS011;64044;59.904;10.738;2023-08-20T09:06:47;1.35;;;0.98;;
74293;SDS011;64044;59.904;10.738;2023-08-20T09:09:14;0.85;;;0.85;;
74293;SDS011;64044;59.904;10.738;2023-08-20T09:11:41;1.42;;;1.00;;
74293;SDS011;64044;59.904;10.738;2023-08-20T09:14:07;1.65;;;1.08;;
74293;SDS011;64044;59.904;10.738;2023-08-20T09:16:33;1.30;;;1.08;;
74293;SDS011;64044;59.904;10.738;2023-08-20T09:18:59;2.78;;;1.10;;
74293;SDS011;64044;59.904;10.738;2023-08-20T09:21:27;5.35;;;1.77;;
74293;SDS011;64044;59.904;10.738;2023-08-20T09:23:56;2.93;;;1.27;;
74293;SDS011;64044;59.904;10.738;2023-08-20T09:26:22;1.30;;;1.20;;
74293;SDS011;64044;59.904;10.738;2023-08-20T09:28:48;3.22;;;1.70;;
74293;SDS011;64044;59.904;10.738;2023-08-20T09:31:14;3.13;;;1.30;;
74293;SDS011;64044;59.904;10.738;2023-08-20T09:33:53;1.55;;;1.45;;
74293;SDS011;64044;59.904;10.738;2023-08-20T09:36:29;3.00;;;1.58;;
74293;SDS011;64044;59.904;10.738;2023-08-20T09:38:56;3.15;;;1.75;;
74293;SDS011;64044;59.904;10.738;2023-08-20T09:41:22;3.97;;;1.98;;
74293;SDS011;64044;59.904;10.738;2023-08-20T09:43:48;3.63;;;2.00;;
74293;SDS011;64044;59.904;10.738;2023-08-20T09:46:24;4.57;;;1.65;;
74293;SDS011;64044;59.904;10.738;2023-08-20T09:48:52;3.15;;;1.95;;
74293;SDS011;64044;59.904;10.738;2023-08-20T09:51:24;2.60;;;1.70;;
74293;SDS011;64044;59.904;10.738;2023-08-20T09:54:01;3.57;;;2.30;;
74293;SDS011;64044;59.904;10.738;2023-08-20T09:56:44;3.08;;;2.40;;
74293;SDS011;64044;59.904;10.738;2023-08-20T09:59:15;5.57;;;1.90;;
74293;SDS011;64044;59.904;10.738;2023-08-20T10:01:42;4.40;;;1.92;;
74293;SDS011;64044;59.904;10.738;2023-08-20T10:04:08;5.78;;;2.10;;
74293;SDS011;64044;59.904;10.738;2023-08-20T10:06:35;4.13;;;1.90;;
74293;SDS011;64044;59.904;10.738;2023-08-20T10:09:02;5.25;;;1.77;;
74293;SDS011;64044;59.904;10.738;2023-08-20T10:11:28;4.97;;;2.00;;
74293;SDS011;64044;59.904;10.738;2023-08-20T10:13:54;5.93;;;2.58;;
74293;SDS011;64044;59.904;10.738;2023-08-20T10:16:20;3.53;;;2.20;;
74293;SDS011;64044;59.904;10.738;2023-08-20T10:18:48;2.92;;;1.85;;
74293;SDS011;64044;59.904;10.738;2023-08-20T10:21:14;8.18;;;2.33;;
74293;SDS011;64044;59.904;10.738;2023-08-20T10:23:40;4.13;;;1.85;;
74293;SDS011;64044;59.904;10.738;2023-08-20T10:26:08;3.80;;;2.00;;
74293;SDS011;64044;59.904;10.738;2023-08-20T10:28:34;7.60;;;2.33;;
74293;SDS011;64044;59.904;10.738;2023-08-20T10:31:13;2.90;;;1.88;;
74293;SDS011;64044;59.904;10.738;2023-08-20T10:36:18;3.88;;;1.88;;
74293;SDS011;64044;59.904;10.738;2023-08-20T10:38:51;5.07;;;2.08;;
74293;SDS011;64044;59.904;10.738;2023-08-20T10:41:29;4.93;;;2.17;;
74293;SDS011;64044;59.904;10.738;2023-08-20T10:43:58;5.93;;;2.97;;
74293;SDS011;64044;59.904;10.738;2023-08-20T10:46:26;5.97;;;2.50;;
74293;SDS011;64044;59.904;10.738;2023-08-20T10:48:59;6.72;;;2.40;;
74293;SDS011;64044;59.904;10.738;2023-08-20T10:51:28;7.75;;;2.40;;
74293;SDS011;64044;59.904;10.738;2023-08-20T11:01:55;6.18;;;2.20;;
74293;SDS011;64044;59.904;10.738;2023-08-20T11:04:23;4.70;;;2.22;;
74293;SDS011;64044;59.904;10.738;2023-08-20T11:06:53;3.40;;;2.00;;
74293;SDS011;64044;59.904;10.738;2023-08-20T11:09:23;3.75;;;2.17;;
74293;SDS011;64044;59.904;10.738;2023-08-20T11:11:51;4.57;;;2.20;;
74293;SDS011;64044;59.904;10.738;2023-08-20T11:14:18;5.15;;;2.22;;
74293;SDS011;64044;59.904;10.738;2023-08-20T11:16:45;4.97;;;2.05;;
74293;SDS011;64044;59.904;10.738;2023-08-20T11:19:11;3.92;;;1.98;;
74293;SDS011;64044;59.904;10.738;2023-08-20T11:21:39;5.10;;;2.17;;
74293;SDS011;64044;59.904;10.738;2023-08-20T11:24:09;4.97;;;2.20;;
74293;SDS011;64044;59.904;10.738;2023-08-20T11:26:35;5.38;;;2.15;;
74293;SDS011;64044;59.904;10.738;2023-08-20T11:29:22;4.57;;;2.13;;
74293;SDS011;64044;59.904;10.738;2023-08-20T11:31:48;7.95;;;2.42;;
74293;SDS011;64044;59.904;10.738;2023-08-20T11:34:14;3.05;;;2.00;;
74293;SDS011;64044;59.904;10.738;2023-08-20T11:36:40;5.43;;;2.33;;
74293;SDS011;64044;59.904;10.738;2023-08-20T11:39:07;8.27;;;2.85;;
74293;SDS011;64044;59.904;10.738;2023-08-20T11:41:35;4.60;;;2.08;;
74293;SDS011;64044;59.904;10.738;2023-08-20T11:44:01;6.43;;;2.00;;
74293;SDS011;64044;59.904;10.738;2023-08-20T11:46:28;6.13;;;2.30;;
74293;SDS011;64044;59.904;10.738;2023-08-20T11:49:07;6.47;;;2.70;;
74293;SDS011;64044;59.904;10.738;2023-08-20T11:51:41;7.60;;;2.05;;
74293;SDS011;64044;59.904;10.738;2023-08-20T11:54:09;4.53;;;1.92;;
74293;SDS011;64044;59.904;10.738;2023-08-20T11:56:50;6.57;;;2.30;;
74293;SDS011;64044;59.904;10.738;2023-08-20T11:59:18;5.47;;;1.90;;
74293;SDS011;64044;59.904;10.738;2023-08-20T12:01:52;6.07;;;2.10;;
74293;SDS011;64044;59.904;10.738;2023-08-20T12:04:23;5.10;;;2.20;;
74293;SDS011;64044;59.904;10.738;2023-08-20T12:09:38;7.18;;;2.75;;
74293;SDS011;64044;59.904;10.738;2023-08-20T12:12:05;4.68;;;2.10;;
74293;SDS011;64044;59.904;10.738;2023-08-20T12:14:32;4.18;;;2.00;;
74293;SDS011;64044;59.904;10.738;2023-08-20T12:16:58;6.28;;;2.30;;
74293;SDS011;64044;59.904;10.738;2023-08-20T12:19:23;6.30;;;3.00;;
74293;SDS011;64044;59.904;10.738;2023-08-20T12:21:49;5.93;;;2.70;;
74293;SDS011;64044;59.904;10.738;2023-08-20T12:24:15;11.18;;;3.28;;
74293;SDS011;64044;59.904;10.738;2023-08-20T12:26:44;16.48;;;4.07;;
74293;SDS011;64044;59.904;10.738;2023-08-20T12:29:10;9.35;;;3.08;;
74293;SDS011;64044;59.904;10.738;2023-08-20T12:31:35;9.43;;;2.75;;
74293;SDS011;64044;59.904;10.738;2023-08-20T12:34:01;4.88;;;1.98;;
74293;SDS011;64044;59.904;10.738;2023-08-20T12:36:28;5.50;;;2.50;;
74293;SDS011;64044;59.904;10.738;2023-08-20T12:38:54;6.07;;;2.45;;
74293;SDS011;64044;59.904;10.738;2023-08-20T12:41:21;5.32;;;2.13;;
74293;SDS011;64044;59.904;10.738;2023-08-20T12:43:47;5.05;;;2.08;;
74293;SDS011;64044;59.904;10.738;2023-08-20T12:46:13;2.75;;;1.80;;
74293;SDS011;64044;59.904;10.738;2023-08-20T12:48:39;4.93;;;2.70;;
74293;SDS011;64044;59.904;10.738;2023-08-20T12:51:04;4.07;;;2.22;;
74293;SDS011;64044;59.904;10.738;2023-08-20T12:53:31;3.92;;;2.95;;
74293;SDS011;64044;59.904;10.738;2023-08-20T12:55:57;6.28;;;5.00;;
74293;SDS011;64044;59.904;10.738;2023-08-20T12:58:23;6.00;;;5.40;;
74293;SDS011;64044;59.904;10.738;2023-08-20T13:01:15;8.70;;;6.90;;
74293;SDS011;64044;59.904;10.738;2023-08-20T13:03:40;7.45;;;6.05;;
74293;SDS011;64044;59.904;10.738;2023-08-20T13:06:06;7.00;;;6.03;;
74293;SDS011;64044;59.904;10.738;2023-08-20T13:08:32;7.15;;;6.45;;
74293;SDS011;64044;59.904;10.738;2023-08-20T13:10:58;6.80;;;6.10;;
74293;SDS011;64044;59.904;10.738;2023-08-20T13:13:26;7.18;;;6.47;;
74293;SDS011;64044;59.904;10.738;2023-08-20T13:15:52;7.07;;;6.38;;
74293;SDS011;64044;59.904;10.738;2023-08-20T13:18:19;6.95;;;6.25;;
74293;SDS011;64044;59.904;10.738;2023-08-20T13:20:49;6.80;;;6.20;;
74293;SDS011;64044;59.904;10.738;2023-08-20T13:23:16;6.50;;;5.78;;
74293;SDS011;64044;59.904;10.738;2023-08-20T13:25:42;7.07;;;5.97;;
74293;SDS011;64044;59.904;10.738;2023-08-20T13:28:08;7.07;;;5.80;;
74293;SDS011;64044;59.904;10.738;2023-08-20T13:30:34;7.22;;;5.43;;
74293;SDS011;64044;59.904;10.738;2023-08-20T13:33:00;5.68;;;5.15;;
74293;SDS011;64044;59.904;10.738;2023-08-20T13:35:26;6.95;;;5.30;;
74293;SDS011;64044;59.904;10.738;2023-08-20T13:37:51;5.57;;;4.13;;
74293;SDS011;64044;59.904;10.738;2023-08-20T13:40:18;5.25;;;4.68;;
74293;SDS011;64044;59.904;10.738;2023-08-20T13:42:43;4.50;;;4.05;;
74293;SDS011;64044;59.904;10.738;2023-08-20T13:45:09;5.18;;;4.43;;
74293;SDS011;64044;59.904;10.738;2023-08-20T13:47:35;4.30;;;3.65;;
74293;SDS011;64044;59.904;10.738;2023-08-20T13:50:00;4.57;;;3.63;;
74293;SDS011;64044;59.904;10.738;2023-08-20T13:52:28;7.50;;;3.90;;
74293;SDS011;64044;59.904;10.738;2023-08-20T13:54:54;4.03;;;3.70;;
74293;SDS011;64044;59.904;10.738;2023-08-20T13:57:20;2.78;;;2.53;;
74293;SDS011;64044;59.904;10.738;2023-08-20T13:59:45;2.58;;;2.40;;
74293;SDS011;64044;59.904;10.738;2023-08-20T14:02:11;2.45;;;2.20;;
74293;SDS011;64044;59.904;10.738;2023-08-20T14:04:37;2.58;;;2.08;;
74293;SDS011;64044;59.904;10.738;2023-08-20T14:07:03;2.50;;;1.90;;
74293;SDS011;64044;59.904;10.738;2023-08-20T14:09:28;2.42;;;2.00;;
74293;SDS011;64044;59.904;10.738;2023-08-20T14:11:54;2.13;;;2.03;;
74293;SDS011;64044;59.904;10.738;2023-08-20T14:14:20;2.20;;;2.00;;
74293;SDS011;64044;59.904;10.738;2023-08-20T14:16:45;2.17;;;2.00;;
74293;SDS011;64044;59.904;10.738;2023-08-20T14:19:11;1.70;;;1.60;;
74293;SDS011;64044;59.904;10.738;2023-08-20T14:21:37;2.10;;;1.90;;
74293;SDS011;64044;59.904;10.738;2023-08-20T14:24:03;3.58;;;1.83;;
74293;SDS011;64044;59.904;10.738;2023-08-20T14:26:29;3.30;;;1.90;;
74293;SDS011;64044;59.904;10.738;2023-08-20T14:28:54;1.92;;;1.83;;
74293;SDS011;64044;59.904;10.738;2023-08-20T14:31:20;2.20;;;2.05;;
74293;SDS011;64044;59.904;10.738;2023-08-20T14:33:46;2.83;;;2.25;;
74293;SDS011;64044;59.904;10.738;2023-08-20T14:36:11;2.47;;;2.25;;
74293;SDS011;64044;59.904;10.738;2023-08-20T14:38:37;2.05;;;1.92;;
74293;SDS011;64044;59.904;10.738;2023-08-20T14:41:03;2.55;;;2.35;;
74293;SDS011;64044;59.904;10.738;2023-08-20T14:43:29;2.58;;;2.22;;
74293;SDS011;64044;59.904;10.738;2023-08-20T14:45:55;2.45;;;2.22;;
74293;SDS011;64044;59.904;10.738;2023-08-20T14:48:22;2.40;;;2.20;;
74293;SDS011;64044;59.904;10.738;2023-08-20T14:50:48;2.95;;;2.75;;
74293;SDS011;64044;59.904;10.738;2023-08-20T14:53:14;2.83;;;2.30;;
74293;SDS011;64044;59.904;10.738;2023-08-20T14:55:40;2.40;;;2.20;;
74293;SDS011;64044;59.904;10.738;2023-08-20T14:58:06;2.97;;;2.03;;